Time;durP1;ratioP1;P1;durP2;ratioP2;P2;SDS_P1;SDS_P2;PMS_P1;PMS_P2;Temp;Humidity;BMP_temperature;BMP_pressure;BME280_temperature;BME280_humidity;BME280_pressure;Samples;Min_cycle;Max_cycle;Signal;HPM_P1;HPM_P2
2023/10/13 00:01:51;;;;;;;6.65;4.05;;;;;;;;;;5906216;28;20060;-78
2023/10/13 00:04:42;;;;;;;3.83;1.90;;;;;;;;;;5892049;28;20124;-79
2023/10/13 00:07:33;;;;;;;4.10;3.25;;;;;;;;;;5907454;28;20048;-78
2023/10/13 00:10:24;;;;;;;4.60;3.28;;;;;;;;;;5886433;28;20552;-78
2023/10/13 00:13:20;;;;;;;8.43;3.58;;;;;;;;;;5901706;28;20395;-78
2023/10/13 00:16:17;;;;;;;4.32;2.95;;;;;;;;;;5885046;28;20044;-78
2023/10/13 00:19:10;;;;;;;10.25;4.38;;;;;;;;;;5888938;28;20045;-78
2023/10/13 00:22:10;;;;;;;9.18;3.88;;;;;;;;;;5901160;28;20809;-79
2023/10/13 00:25:03;;;;;;;6.20;4.80;;;;;;;;;;5882882;28;20084;-78
2023/10/13 00:27:55;;;;;;;11.88;4.68;;;;;;;;;;5899976;28;20059;-78
2023/10/13 00:35:37;;;;;;;12.05;4.72;;;;;;;;;;5905306;28;20503;-78
2023/10/13 00:38:28;;;;;;;7.88;4.00;;;;;;;;;;5903604;28;20053;-78
2023/10/13 00:41:34;;;;;;;7.00;4.68;;;;;;;;;;5906800;28;20131;-78
2023/10/13 00:44:28;;;;;;;8.80;4.30;;;;;;;;;;5899533;28;20484;-79
2023/10/13 00:47:37;;;;;;;7.28;4.75;;;;;;;;;;5904561;28;20404;-79
2023/10/13 00:50:30;;;;;;;7.38;4.97;;;;;;;;;;5884625;28;20544;-78
2023/10/13 00:53:21;;;;;;;6.20;4.20;;;;;;;;;;5906332;28;20060;-78
2023/10/13 00:56:19;;;;;;;5.57;3.80;;;;;;;;;;5906136;28;20067;-78
2023/10/13 00:59:10;;;;;;;13.82;5.65;;;;;;;;;;5906456;28;20391;-78
2023/10/13 01:02:26;;;;;;;10.57;5.28;;;;;;;;;;5881485;28;20055;-78
2023/10/13 01:05:19;;;;;;;9.13;4.63;;;;;;;;;;5884420;28;20385;-78
2023/10/13 01:08:11;;;;;;;12.68;4.38;;;;;;;;;;5905992;28;20040;-79
2023/10/13 01:11:02;;;;;;;7.45;4.40;;;;;;;;;;5905640;28;20092;-79
2023/10/13 01:13:53;;;;;;;7.72;4.78;;;;;;;;;;5894126;28;20423;-78
2023/10/13 01:16:45;;;;;;;11.85;4.70;;;;;;;;;;5886842;28;20052;-78
2023/10/13 01:24:15;;;;;;;7.55;4.13;;;;;;;;;;5901362;28;20176;-78
2023/10/13 01:27:17;;;;;;;6.72;4.20;;;;;;;;;;5880942;28;20041;-79
2023/10/13 01:30:10;;;;;;;7.15;4.88;;;;;;;;;;5882628;28;20048;-78
2023/10/13 01:33:02;;;;;;;5.30;4.28;;;;;;;;;;5905579;28;20055;-78
2023/10/13 01:35:58;;;;;;;4.88;3.45;;;;;;;;;;5881755;28;20455;-78
2023/10/13 01:38:51;;;;;;;7.43;4.80;;;;;;;;;;5874292;28;20049;-79
2023/10/13 01:41:42;;;;;;;5.28;3.55;;;;;;;;;;5904348;28;20479;-78
2023/10/13 01:44:33;;;;;;;6.47;3.60;;;;;;;;;;5905743;28;20041;-78
2023/10/13 01:47:27;;;;;;;8.55;4.20;;;;;;;;;;5883303;28;20055;-79
2023/10/13 01:50:28;;;;;;;3.63;2.95;;;;;;;;;;5901834;28;20052;-79
2023/10/13 01:53:19;;;;;;;7.35;3.45;;;;;;;;;;5905843;28;20048;-78
2023/10/13 01:56:10;;;;;;;7.28;3.90;;;;;;;;;;5905589;28;20064;-79
2023/10/13 01:59:01;;;;;;;3.53;3.13;;;;;;;;;;5900738;28;20052;-79
2023/10/13 02:01:54;;;;;;;4.07;2.92;;;;;;;;;;5906149;28;20052;-78
2023/10/13 02:04:48;;;;;;;12.55;4.03;;;;;;;;;;5902428;28;21800;-79
2023/10/13 02:07:44;;;;;;;6.63;4.22;;;;;;;;;;5904281;28;20052;-78
2023/10/13 02:10:35;;;;;;;5.03;3.25;;;;;;;;;;5898401;28;20381;-79
2023/10/13 02:13:26;;;;;;;4.82;4.05;;;;;;;;;;5905387;28;20044;-79
2023/10/13 02:16:22;;;;;;;5.85;3.25;;;;;;;;;;5904600;28;20129;-78
2023/10/13 02:19:15;;;;;;;4.88;3.78;;;;;;;;;;5900566;28;20403;-79
2023/10/13 02:22:09;;;;;;;4.13;2.60;;;;;;;;;;5901693;28;20545;-78
2023/10/13 02:25:07;;;;;;;6.40;2.83;;;;;;;;;;5887285;28;20384;-79
2023/10/13 02:27:58;;;;;;;8.85;3.60;;;;;;;;;;5882057;28;20086;-78
2023/10/13 02:30:50;;;;;;;4.75;3.17;;;;;;;;;;5881820;28;20057;-78
2023/10/13 02:33:44;;;;;;;3.22;2.45;;;;;;;;;;5882075;28;20496;-78
2023/10/13 02:41:25;;;;;;;6.03;2.00;;;;;;;;;;5882404;28;20420;-78
2023/10/13 02:44:41;;;;;;;3.95;2.85;;;;;;;;;;5882128;28;20060;-78
2023/10/13 02:47:31;;;;;;;1.88;1.75;;;;;;;;;;5880859;28;20447;-78
2023/10/13 02:50:24;;;;;;;3.53;2.17;;;;;;;;;;5900167;28;20479;-78
2023/10/13 02:53:18;;;;;;;2.55;2.22;;;;;;;;;;5879295;28;20045;-78
2023/10/13 02:56:13;;;;;;;2.70;2.33;;;;;;;;;;5880895;28;20139;-79
2023/10/13 02:59:07;;;;;;;9.30;2.78;;;;;;;;;;5881943;28;20045;-78
2023/10/13 03:01:57;;;;;;;2.78;2.08;;;;;;;;;;5884362;28;20044;-79
2023/10/13 03:04:49;;;;;;;5.53;2.70;;;;;;;;;;5894013;28;20049;-78
2023/10/13 03:07:43;;;;;;;5.20;2.88;;;;;;;;;;5890448;28;20514;-78
2023/10/13 03:10:36;;;;;;;4.65;2.83;;;;;;;;;;5884004;28;20052;-79
2023/10/13 03:13:28;;;;;;;2.83;2.55;;;;;;;;;;5884760;28;20127;-78
2023/10/13 03:16:21;;;;;;;6.30;3.58;;;;;;;;;;5883094;28;20045;-78
2023/10/13 03:19:13;;;;;;;6.13;2.83;;;;;;;;;;5885191;28;20049;-78
2023/10/13 03:22:11;;;;;;;3.72;2.67;;;;;;;;;;5902105;28;20067;-79
2023/10/13 03:25:07;;;;;;;2.95;1.83;;;;;;;;;;5890071;28;20048;-79
2023/10/13 03:31:01;;;;;;;4.78;2.85;;;;;;;;;;5908681;28;20110;-79
2023/10/13 03:33:56;;;;;;;3.65;3.10;;;;;;;;;;5908579;28;20078;-78
2023/10/13 03:36:57;;;;;;;5.00;3.05;;;;;;;;;;5885488;28;20518;-79
2023/10/13 03:39:48;;;;;;;1.98;1.80;;;;;;;;;;5894325;28;20063;-77
2023/10/13 03:42:40;;;;;;;8.82;2.92;;;;;;;;;;5906886;28;20048;-79
2023/10/13 03:45:42;;;;;;;4.38;2.55;;;;;;;;;;5890559;28;20048;-78
2023/10/13 03:48:40;;;;;;;6.18;2.35;;;;;;;;;;5886215;28;20532;-79
2023/10/13 03:51:32;;;;;;;10.65;1.98;;;;;;;;;;5883565;28;20048;-78
2023/10/13 03:54:23;;;;;;;2.65;2.45;;;;;;;;;;5883681;28;20492;-78
2023/10/13 03:57:14;;;;;;;4.90;2.35;;;;;;;;;;5891489;28;20045;-78
2023/10/13 04:00:19;;;;;;;2.90;2.33;;;;;;;;;;5889970;28;20151;-78
2023/10/13 04:03:15;;;;;;;5.15;2.92;;;;;;;;;;5883297;28;20043;-78
2023/10/13 04:06:07;;;;;;;3.80;2.45;;;;;;;;;;5884883;28;20057;-78
2023/10/13 04:15:43;;;;;;;5.35;3.30;;;;;;;;;;5844614;28;20052;-78
2023/10/13 04:18:46;;;;;;;2.67;2.38;;;;;;;;;;5840483;28;20060;-78
2023/10/13 04:21:55;;;;;;;3.08;2.63;;;;;;;;;;5895873;28;20059;-78
2023/10/13 04:27:54;;;;;;;5.47;3.15;;;;;;;;;;5884302;28;19920;-78
2023/10/13 04:34:00;;;;;;;4.22;3.33;;;;;;;;;;5883052;28;20041;-78
2023/10/13 04:37:10;;;;;;;3.40;2.75;;;;;;;;;;5884070;28;20068;-78
2023/10/13 04:40:10;;;;;;;5.25;2.55;;;;;;;;;;5897764;28;20501;-78
2023/10/13 04:43:16;;;;;;;5.72;2.90;;;;;;;;;;5883931;28;20463;-78
2023/10/13 04:49:29;;;;;;;5.88;2.67;;;;;;;;;;5890609;28;20123;-79
2023/10/13 04:52:50;;;;;;;7.80;3.75;;;;;;;;;;5899350;28;20523;-78
2023/10/13 04:56:53;;;;;;;3.30;2.72;;;;;;;;;;5884882;28;20094;-78
2023/10/13 05:52:18;;;;;;;5.63;2.53;;;;;;;;;;5895255;28;20483;-78
2023/10/13 06:30:06;;;;;;;5.45;3.15;;;;;;;;;;5883411;28;20041;-78
2023/10/13 06:32:57;;;;;;;9.50;4.82;;;;;;;;;;5882662;28;20128;-79
2023/10/13 06:35:50;;;;;;;13.18;3.78;;;;;;;;;;5886032;28;20045;-78
2023/10/13 06:38:41;;;;;;;4.25;3.22;;;;;;;;;;5890324;28;20041;-79
2023/10/13 06:41:32;;;;;;;8.60;4.05;;;;;;;;;;5902734;28;20044;-78
2023/10/13 06:44:23;;;;;;;7.35;3.60;;;;;;;;;;5905684;28;20109;-78
2023/10/13 06:47:14;;;;;;;15.50;4.05;;;;;;;;;;5891222;28;20048;-78
2023/10/13 06:50:15;;;;;;;20.52;3.03;;;;;;;;;;5889724;28;20380;-78
2023/10/13 06:53:05;;;;;;;6.43;4.00;;;;;;;;;;5901881;28;20045;-78
2023/10/13 06:55:58;;;;;;;6.50;3.00;;;;;;;;;;5906414;28;20403;-78
2023/10/13 06:58:49;;;;;;;4.60;3.13;;;;;;;;;;5902079;28;20045;-79
2023/10/13 07:01:42;;;;;;;3.53;2.78;;;;;;;;;;5892471;28;20395;-78
2023/10/13 07:04:33;;;;;;;11.73;3.33;;;;;;;;;;5886183;28;20056;-79
2023/10/13 07:07:24;;;;;;;7.18;3.35;;;;;;;;;;5898811;28;20175;-79
2023/10/13 07:10:16;;;;;;;6.32;3.50;;;;;;;;;;5899558;28;20044;-78
2023/10/13 07:13:07;;;;;;;4.53;2.83;;;;;;;;;;5896350;28;20048;-78
2023/10/13 07:16:05;;;;;;;7.35;3.15;;;;;;;;;;5900872;28;20044;-78
2023/10/13 07:19:04;;;;;;;7.95;2.92;;;;;;;;;;5896079;28;20040;-78
2023/10/13 07:22:03;;;;;;;20.40;3.08;;;;;;;;;;5897032;28;20065;-79
2023/10/13 07:24:57;;;;;;;9.75;3.38;;;;;;;;;;5887119;28;20041;-78
2023/10/13 07:27:49;;;;;;;7.05;3.22;;;;;;;;;;5890084;28;20041;-79
2023/10/13 07:30:49;;;;;;;11.00;3.78;;;;;;;;;;5886560;28;20451;-79
2023/10/13 07:33:41;;;;;;;8.73;4.35;;;;;;;;;;5889513;28;20179;-78
2023/10/13 07:36:39;;;;;;;8.60;3.85;;;;;;;;;;5889602;28;20056;-79
2023/10/13 07:39:33;;;;;;;8.63;4.75;;;;;;;;;;5895423;28;20041;-79
2023/10/13 07:42:31;;;;;;;9.35;3.00;;;;;;;;;;5887090;28;20052;-78
2023/10/13 07:45:25;;;;;;;9.50;4.03;;;;;;;;;;5886200;28;20060;-79
2023/10/13 07:48:19;;;;;;;5.40;3.63;;;;;;;;;;5901904;28;20055;-78
2023/10/13 07:51:15;;;;;;;17.38;4.43;;;;;;;;;;5892802;28;20048;-79
2023/10/13 07:54:11;;;;;;;20.35;3.65;;;;;;;;;;5885435;28;20044;-79
2023/10/13 07:57:07;;;;;;;6.82;3.78;;;;;;;;;;5884772;28;20115;-79
2023/10/13 08:00:25;;;;;;;7.43;4.00;;;;;;;;;;5895827;28;20044;-78
2023/10/13 08:09:08;;;;;;;8.95;3.53;;;;;;;;;;5890815;28;20484;-79
2023/10/13 08:11:59;;;;;;;6.70;3.20;;;;;;;;;;5891861;28;20051;-79
2023/10/13 08:15:09;;;;;;;18.52;3.65;;;;;;;;;;5899925;28;20048;-78
2023/10/13 08:18:17;;;;;;;3.95;2.28;;;;;;;;;;5900654;28;20090;-78
2023/10/13 08:21:16;;;;;;;41.40;4.70;;;;;;;;;;5893674;28;20060;-78
2023/10/13 08:24:07;;;;;;;11.57;3.15;;;;;;;;;;5901123;28;20059;-78
2023/10/13 08:30:29;;;;;;;9.68;3.80;;;;;;;;;;5876154;28;20147;-79
2023/10/13 08:33:25;;;;;;;5.78;3.13;;;;;;;;;;5897519;28;20496;-78
2023/10/13 08:36:29;;;;;;;4.60;2.78;;;;;;;;;;5892461;28;20063;-79
2023/10/13 08:48:31;;;;;;;7.25;2.72;;;;;;;;;;5887555;28;20044;-78
2023/10/13 08:51:43;;;;;;;6.30;3.88;;;;;;;;;;5887850;28;20408;-77
2023/10/13 08:54:45;;;;;;;12.75;3.97;;;;;;;;;;5896418;28;20067;-77
2023/10/13 08:57:37;;;;;;;5.97;3.58;;;;;;;;;;5886962;28;20124;-78
2023/10/13 09:03:42;;;;;;;7.10;3.15;;;;;;;;;;5886547;28;20057;-79
2023/10/13 09:06:36;;;;;;;4.30;2.20;;;;;;;;;;5890275;28;20051;-78
2023/10/13 09:12:39;;;;;;;4.10;2.35;;;;;;;;;;5878335;28;20412;-79
2023/10/13 09:18:46;;;;;;;5.30;2.67;;;;;;;;;;5888380;28;20071;-79
2023/10/13 09:24:36;;;;;;;5.40;3.03;;;;;;;;;;5885678;28;20063;-78
2023/10/13 09:27:28;;;;;;;4.63;2.60;;;;;;;;;;5892952;28;20059;-78
2023/10/13 09:30:22;;;;;;;3.33;2.10;;;;;;;;;;5897140;28;20051;-78
2023/10/13 09:33:20;;;;;;;8.90;3.13;;;;;;;;;;5885045;28;20132;-78
2023/10/13 09:36:13;;;;;;;4.97;3.08;;;;;;;;;;5894816;28;20047;-78
2023/10/13 09:39:12;;;;;;;5.85;1.92;;;;;;;;;;5894146;28;20103;-78
2023/10/13 09:42:07;;;;;;;6.28;2.72;;;;;;;;;;5885074;28;20407;-78
2023/10/13 09:45:04;;;;;;;5.38;2.63;;;;;;;;;;5888483;28;20484;-78
2023/10/13 09:48:16;;;;;;;7.40;3.03;;;;;;;;;;5886914;28;20036;-78
2023/10/13 09:51:19;;;;;;;9.52;2.58;;;;;;;;;;5900373;28;20127;-77
2023/10/13 09:54:34;;;;;;;3.13;1.88;;;;;;;;;;5887777;28;20118;-78
2023/10/13 09:57:35;;;;;;;7.93;2.33;;;;;;;;;;5881954;28;20052;-78
2023/10/13 10:06:28;;;;;;;3.78;2.35;;;;;;;;;;5892512;28;20548;-78
2023/10/13 10:09:22;;;;;;;2.63;1.45;;;;;;;;;;5891296;28;20108;-77
2023/10/13 10:12:47;;;;;;;4.90;1.95;;;;;;;;;;5895124;28;20835;-77
2023/10/13 10:15:47;;;;;;;8.07;1.83;;;;;;;;;;5899122;28;20622;-78
2023/10/13 10:18:39;;;;;;;1.85;1.42;;;;;;;;;;5907397;28;20357;-78
2023/10/13 10:21:38;;;;;;;5.40;2.05;;;;;;;;;;5887112;28;20049;-78
2023/10/13 10:24:29;;;;;;;2.72;1.90;;;;;;;;;;5895839;28;20049;-78
2023/10/13 10:27:29;;;;;;;1.27;1.08;;;;;;;;;;5891142;28;20045;-77
2023/10/13 10:30:28;;;;;;;2.15;1.40;;;;;;;;;;5888770;28;20056;-79
2023/10/13 10:33:20;;;;;;;1.73;0.93;;;;;;;;;;5898934;28;20487;-78
2023/10/13 10:36:14;;;;;;;6.07;1.85;;;;;;;;;;5894407;28;20143;-79
2023/10/13 10:39:06;;;;;;;3.63;1.40;;;;;;;;;;5893372;28;20049;-78
2023/10/13 10:42:01;;;;;;;3.58;1.30;;;;;;;;;;5910147;28;20492;-78
2023/10/13 10:45:05;;;;;;;1.77;1.10;;;;;;;;;;5887704;28;20066;-77
2023/10/13 10:47:58;;;;;;;2.58;1.88;;;;;;;;;;5900280;28;20090;-78
2023/10/13 10:50:55;;;;;;;1.80;1.48;;;;;;;;;;5898450;28;20052;-78
2023/10/13 11:16:34;;;;;;;1.52;1.10;;;;;;;;;;5883351;28;20144;-78
2023/10/13 11:19:40;;;;;;;9.27;1.60;;;;;;;;;;5857578;28;20499;-78
2023/10/13 11:22:41;;;;;;;2.17;1.67;;;;;;;;;;5881809;28;20071;-79
2023/10/13 11:25:35;;;;;;;1.75;1.30;;;;;;;;;;5885543;28;20040;-76
2023/10/13 11:28:29;;;;;;;3.33;2.08;;;;;;;;;;5883117;28;20049;-77
2023/10/13 11:31:20;;;;;;;18.98;2.42;;;;;;;;;;5859724;28;20076;-79
2023/10/13 11:34:11;;;;;;;3.63;2.10;;;;;;;;;;5884600;28;20076;-77
2023/10/13 11:40:42;;;;;;;2.45;1.63;;;;;;;;;;5869980;28;20083;-78
2023/10/13 11:43:27;;;;;;;2.03;1.55;;;;;;;;;;5879900;28;20049;-78
2023/10/13 11:52:19;;;;;;;2.47;1.50;;;;;;;;;;5876169;28;20123;-77
2023/10/13 11:55:10;;;;;;;3.63;1.17;;;;;;;;;;5876142;28;20051;-78
2023/10/13 11:58:05;;;;;;;3.85;1.80;;;;;;;;;;5884369;28;20053;-79
2023/10/13 12:10:49;;;;;;;3.22;1.13;;;;;;;;;;5907534;28;20072;-78
2023/10/13 12:13:40;;;;;;;3.95;1.38;;;;;;;;;;5904098;28;20052;-78
2023/10/13 12:16:34;;;;;;;6.18;1.50;;;;;;;;;;5904659;28;20454;-78
2023/10/13 12:19:29;;;;;;;2.13;1.45;;;;;;;;;;5905879;28;20082;-79
2023/10/13 12:22:35;;;;;;;2.72;1.23;;;;;;;;;;5879520;28;20056;-79
2023/10/13 12:28:26;;;;;;;4.78;1.48;;;;;;;;;;5906663;28;20055;-79
2023/10/13 12:31:26;;;;;;;1.08;0.90;;;;;;;;;;5896736;28;20041;-78
2023/10/13 12:34:31;;;;;;;1.25;0.82;;;;;;;;;;5905977;28;20123;-78
2023/10/13 12:50:12;;;;;;;1.42;1.17;;;;;;;;;;5905828;28;20384;-78
2023/10/13 12:53:03;;;;;;;2.78;1.50;;;;;;;;;;5889041;28;20075;-80
2023/10/13 12:55:54;;;;;;;4.90;2.15;;;;;;;;;;5903090;28;20055;-78
2023/10/13 12:58:51;;;;;;;2.28;0.98;;;;;;;;;;5905005;28;20131;-79
2023/10/13 13:01:42;;;;;;;2.20;1.13;;;;;;;;;;5888264;28;20532;-79
2023/10/13 13:04:36;;;;;;;3.05;1.52;;;;;;;;;;5889473;28;20058;-77
2023/10/13 13:07:42;;;;;;;2.80;1.55;;;;;;;;;;5905825;28;20063;-78
2023/10/13 13:10:37;;;;;;;2.53;0.90;;;;;;;;;;5883611;28;20357;-78
2023/10/13 13:13:28;;;;;;;2.83;1.33;;;;;;;;;;5890758;28;20059;-79
2023/10/13 13:16:30;;;;;;;3.13;1.52;;;;;;;;;;5890510;28;20060;-78
2023/10/13 13:19:25;;;;;;;4.65;1.35;;;;;;;;;;5883593;28;20053;-77
2023/10/13 13:22:20;;;;;;;1.15;0.70;;;;;;;;;;5885140;28;20052;-77
2023/10/13 13:25:11;;;;;;;3.00;1.73;;;;;;;;;;5900301;28;20055;-78
2023/10/13 13:28:05;;;;;;;6.28;1.58;;;;;;;;;;5901558;28;20527;-80
2023/10/13 13:30:56;;;;;;;1.25;0.93;;;;;;;;;;5906461;28;20735;-79
2023/10/13 13:33:49;;;;;;;0.88;0.75;;;;;;;;;;5893193;28;20041;-78
2023/10/13 13:36:44;;;;;;;2.20;0.77;;;;;;;;;;5881745;28;20045;-78
2023/10/13 13:39:37;;;;;;;3.20;1.38;;;;;;;;;;5889738;28;20166;-77
2023/10/13 13:42:29;;;;;;;3.50;1.58;;;;;;;;;;5891705;28;20048;-78
2023/10/13 13:45:27;;;;;;;1.85;0.95;;;;;;;;;;5870518;28;20048;-77
2023/10/13 13:48:19;;;;;;;1.52;0.90;;;;;;;;;;5897001;28;20450;-79
2023/10/13 13:51:14;;;;;;;3.72;1.38;;;;;;;;;;5888431;28;20041;-79
2023/10/13 13:54:33;;;;;;;1.48;1.00;;;;;;;;;;5886040;28;20356;-77
2023/10/13 13:57:24;;;;;;;1.45;1.00;;;;;;;;;;5882551;28;20044;-77
2023/10/13 14:00:18;;;;;;;4.72;1.48;;;;;;;;;;5883013;28;20045;-78
2023/10/13 14:03:12;;;;;;;2.90;1.50;;;;;;;;;;5881785;28;20052;-77
2023/10/13 14:06:04;;;;;;;19.25;1.65;;;;;;;;;;5892783;28;20071;-79
2023/10/13 14:08:59;;;;;;;2.55;1.58;;;;;;;;;;5883916;28;20130;-79
2023/10/13 14:12:41;;;;;;;2.28;1.20;;;;;;;;;;5885820;28;20045;-77
2023/10/13 14:15:39;;;;;;;2.38;1.30;;;;;;;;;;5880510;28;20045;-79
2023/10/13 14:18:30;;;;;;;2.63;1.00;;;;;;;;;;5902257;28;20052;-79
2023/10/13 14:21:24;;;;;;;1.10;0.63;;;;;;;;;;5893170;28;20130;-79
2023/10/13 14:24:18;;;;;;;2.30;1.40;;;;;;;;;;5882989;28;20045;-78
2023/10/13 14:27:13;;;;;;;6.80;1.17;;;;;;;;;;5883070;28;20045;-77
2023/10/13 14:30:31;;;;;;;2.17;1.42;;;;;;;;;;5881408;28;20708;-77
2023/10/13 14:33:25;;;;;;;1.00;0.90;;;;;;;;;;5853902;28;20049;-78
2023/10/13 14:36:19;;;;;;;2.03;1.40;;;;;;;;;;5852531;28;20059;-79
2023/10/13 14:39:10;;;;;;;2.85;1.40;;;;;;;;;;5845260;28;20056;-77
2023/10/13 14:42:04;;;;;;;5.93;2.70;;;;;;;;;;5855107;28;20055;-78
2023/10/13 14:44:58;;;;;;;3.88;1.25;;;;;;;;;;5845896;28;20060;-78
2023/10/13 14:47:48;;;;;;;1.10;0.88;;;;;;;;;;5850339;28;20069;-76
2023/10/13 14:50:42;;;;;;;2.17;1.45;;;;;;;;;;5856649;28;20049;-77
2023/10/13 14:53:34;;;;;;;0.70;0.70;;;;;;;;;;5849405;28;20098;-77
2023/10/13 14:56:27;;;;;;;2.63;1.35;;;;;;;;;;5879127;28;20091;-76
2023/10/13 14:59:22;;;;;;;1.55;1.08;;;;;;;;;;5870565;28;20057;-76
2023/10/13 15:02:12;;;;;;;1.42;0.98;;;;;;;;;;5863712;28;20521;-77
2023/10/13 15:05:04;;;;;;;2.08;1.52;;;;;;;;;;5868817;28;20044;-76
2023/10/13 15:07:55;;;;;;;6.00;1.35;;;;;;;;;;5880048;28;20142;-78
2023/10/13 15:10:46;;;;;;;5.20;1.58;;;;;;;;;;5873023;28;20083;-76
2023/10/13 15:13:37;;;;;;;3.17;2.20;;;;;;;;;;5864857;28;20045;-76
2023/10/13 15:16:28;;;;;;;3.58;2.40;;;;;;;;;;5860303;28;20498;-76
2023/10/13 15:19:19;;;;;;;1.55;1.13;;;;;;;;;;5858619;28;20049;-76
2023/10/13 15:22:16;;;;;;;7.72;2.53;;;;;;;;;;5873528;28;20040;-77
2023/10/13 15:28:20;;;;;;;0.85;0.82;;;;;;;;;;5864454;28;20978;-76
2023/10/13 15:31:22;;;;;;;5.03;1.48;;;;;;;;;;5870375;28;20056;-78
2023/10/13 15:34:13;;;;;;;4.45;1.50;;;;;;;;;;5857194;28;20119;-76
2023/10/13 15:37:05;;;;;;;2.00;1.00;;;;;;;;;;5855912;28;20060;-78
2023/10/13 15:40:00;;;;;;;2.35;1.52;;;;;;;;;;5861434;28;20055;-75
2023/10/13 15:42:51;;;;;;;2.78;1.60;;;;;;;;;;5857436;28;20041;-77
2023/10/13 15:45:45;;;;;;;4.93;3.13;;;;;;;;;;5856149;28;20552;-75
2023/10/13 15:48:36;;;;;;;1.73;0.95;;;;;;;;;;5860529;28;20921;-78
2023/10/13 15:51:29;;;;;;;4.78;3.28;;;;;;;;;;5872290;28;20064;-76
2023/10/13 15:54:20;;;;;;;27.60;4.10;;;;;;;;;;5861227;28;20048;-77
2023/10/13 15:57:16;;;;;;;31.75;5.93;;;;;;;;;;5872027;28;20053;-77
2023/10/13 16:00:26;;;;;;;21.98;10.63;;;;;;;;;;5854254;28;20056;-77
2023/10/13 16:03:18;;;;;;;13.70;6.13;;;;;;;;;;5861900;28;20992;-78
2023/10/13 16:06:10;;;;;;;6.28;4.75;;;;;;;;;;5858804;28;20044;-77
2023/10/13 16:09:03;;;;;;;14.18;8.35;;;;;;;;;;5853931;28;20071;-75
2023/10/13 16:11:58;;;;;;;18.15;9.73;;;;;;;;;;5870076;28;20056;-76
2023/10/13 16:14:50;;;;;;;5.93;5.00;;;;;;;;;;5856421;28;20055;-76
2023/10/13 16:17:41;;;;;;;11.45;5.90;;;;;;;;;;5861070;28;20040;-77
2023/10/13 16:20:36;;;;;;;8.32;4.85;;;;;;;;;;5874502;28;20044;-78
2023/10/13 16:23:28;;;;;;;10.38;3.33;;;;;;;;;;5854734;28;20051;-78
2023/10/13 16:26:21;;;;;;;4.72;3.67;;;;;;;;;;5864874;28;20071;-78
2023/10/13 16:29:14;;;;;;;4.32;2.80;;;;;;;;;;5876188;28;20053;-78
2023/10/13 16:32:05;;;;;;;6.68;3.78;;;;;;;;;;5856946;28;20044;-79
2023/10/13 16:34:57;;;;;;;8.43;4.32;;;;;;;;;;5877369;28;20155;-78
2023/10/13 16:37:50;;;;;;;6.43;3.20;;;;;;;;;;5855866;28;20059;-79
2023/10/13 16:40:41;;;;;;;12.23;5.50;;;;;;;;;;5873796;28;20467;-78
2023/10/13 16:43:36;;;;;;;18.23;3.97;;;;;;;;;;5876749;28;20510;-78
2023/10/13 16:46:27;;;;;;;17.27;5.35;;;;;;;;;;5851963;28;20373;-78
2023/10/13 16:49:18;;;;;;;17.75;6.43;;;;;;;;;;5853679;28;20134;-77
2023/10/13 16:52:15;;;;;;;17.15;9.95;;;;;;;;;;5854020;28;20084;-78
2023/10/13 16:55:09;;;;;;;9.48;6.57;;;;;;;;;;5875908;28;20044;-78
2023/10/13 16:58:01;;;;;;;12.95;7.68;;;;;;;;;;5863534;28;20569;-77
2023/10/13 17:00:52;;;;;;;14.05;6.63;;;;;;;;;;5854422;28;20045;-77
2023/10/13 17:03:44;;;;;;;16.75;7.82;;;;;;;;;;5853895;28;20203;-78
2023/10/13 17:06:36;;;;;;;8.45;5.72;;;;;;;;;;5856534;28;20130;-78
2023/10/13 17:09:28;;;;;;;13.05;5.93;;;;;;;;;;5855238;28;20076;-77
2023/10/13 17:12:22;;;;;;;12.55;5.32;;;;;;;;;;5854298;28;20053;-79
2023/10/13 17:15:19;;;;;;;15.48;6.60;;;;;;;;;;5853099;28;20083;-78
2023/10/13 17:18:11;;;;;;;20.90;7.10;;;;;;;;;;5853302;28;20075;-77
2023/10/13 17:21:24;;;;;;;12.45;6.28;;;;;;;;;;5852732;28;20403;-78
2023/10/13 17:24:19;;;;;;;14.20;5.57;;;;;;;;;;5851016;28;20049;-77
2023/10/13 17:27:19;;;;;;;8.82;5.43;;;;;;;;;;5851294;28;20044;-77
2023/10/13 17:30:12;;;;;;;8.82;4.38;;;;;;;;;;5850072;28;20389;-79
2023/10/13 17:33:11;;;;;;;11.23;5.32;;;;;;;;;;5853369;28;20480;-77
2023/10/13 17:36:06;;;;;;;11.93;5.45;;;;;;;;;;5878013;28;20117;-78
2023/10/13 17:39:00;;;;;;;23.48;6.30;;;;;;;;;;5878096;28;20055;-79
2023/10/13 17:41:53;;;;;;;8.32;4.63;;;;;;;;;;5859500;28;20063;-78
2023/10/13 17:44:48;;;;;;;4.68;3.78;;;;;;;;;;5877098;28;20059;-79
2023/10/13 17:47:41;;;;;;;6.13;3.42;;;;;;;;;;5877439;28;20100;-77
2023/10/13 17:50:33;;;;;;;16.52;5.88;;;;;;;;;;5853184;28;20053;-77
2023/10/13 17:53:48;;;;;;;5.82;3.60;;;;;;;;;;5854275;28;20071;-78
2023/10/13 17:56:39;;;;;;;7.65;3.25;;;;;;;;;;5854319;28;20153;-79
2023/10/13 17:59:36;;;;;;;10.15;5.20;;;;;;;;;;5857867;28;20041;-78
2023/10/13 18:02:27;;;;;;;13.43;7.88;;;;;;;;;;5853457;28;20053;-78
2023/10/13 18:05:18;;;;;;;6.05;5.03;;;;;;;;;;5854978;28;20159;-79
2023/10/13 18:08:11;;;;;;;6.32;4.38;;;;;;;;;;5836251;28;20246;-78
2023/10/13 18:11:06;;;;;;;9.90;3.97;;;;;;;;;;5854152;28;20069;-78
2023/10/13 18:14:00;;;;;;;5.93;3.92;;;;;;;;;;5842850;28;21931;-78
2023/10/13 18:16:54;;;;;;;9.25;3.97;;;;;;;;;;5875634;28;20049;-78
2023/10/13 18:19:49;;;;;;;7.45;3.75;;;;;;;;;;5854208;28;20197;-78
2023/10/13 18:22:42;;;;;;;6.75;2.15;;;;;;;;;;5868249;28;20049;-79
2023/10/13 18:25:45;;;;;;;11.90;3.33;;;;;;;;;;5855508;28;20502;-77
2023/10/13 18:28:35;;;;;;;9.63;4.30;;;;;;;;;;5852322;28;20045;-78
2023/10/13 18:31:28;;;;;;;4.20;3.05;;;;;;;;;;5857464;28;20053;-78
2023/10/13 18:34:20;;;;;;;8.57;3.22;;;;;;;;;;5840144;28;20377;-78
2023/10/13 18:37:13;;;;;;;11.23;5.15;;;;;;;;;;5859222;28;20052;-78
2023/10/13 18:40:11;;;;;;;12.65;4.95;;;;;;;;;;5855439;28;20076;-78
2023/10/13 18:43:04;;;;;;;10.73;3.75;;;;;;;;;;5840651;28;20048;-78
2023/10/13 18:46:06;;;;;;;9.80;4.05;;;;;;;;;;5868544;28;20092;-76
2023/10/13 18:48:58;;;;;;;7.60;3.58;;;;;;;;;;5863613;28;20044;-77
2023/10/13 18:51:49;;;;;;;11.40;4.70;;;;;;;;;;5847760;28;20064;-79
2023/10/13 18:54:40;;;;;;;5.20;3.13;;;;;;;;;;5859117;28;20041;-78
2023/10/13 18:57:31;;;;;;;6.28;3.17;;;;;;;;;;5856408;28;20048;-78
2023/10/13 19:00:25;;;;;;;4.65;2.95;;;;;;;;;;5865835;28;20147;-78
2023/10/13 19:03:19;;;;;;;7.18;3.72;;;;;;;;;;5849407;28;20056;-78
2023/10/13 19:06:15;;;;;;;10.77;5.10;;;;;;;;;;5845233;28;20052;-78
2023/10/13 19:09:07;;;;;;;16.50;4.55;;;;;;;;;;5846423;28;20510;-78
2023/10/13 19:12:01;;;;;;;4.38;2.97;;;;;;;;;;5866556;28;20052;-79
2023/10/13 19:14:52;;;;;;;8.40;3.08;;;;;;;;;;5849104;28;20109;-78
2023/10/13 19:17:44;;;;;;;4.80;2.92;;;;;;;;;;5853649;28;20101;-78
2023/10/13 19:20:41;;;;;;;11.68;6.93;;;;;;;;;;5853640;28;20049;-77
2023/10/13 19:25:17;;;;;;;9.23;3.67;;;;;;;;;;5842309;28;20040;-78
2023/10/13 19:28:37;;;;;;;7.70;3.55;;;;;;;;;;5844147;28;20079;-77
2023/10/13 19:31:30;;;;;;;12.98;3.13;;;;;;;;;;5842041;28;20059;-78
2023/10/13 19:34:26;;;;;;;6.65;2.67;;;;;;;;;;5856741;28;20784;-79
2023/10/13 19:37:22;;;;;;;9.27;2.75;;;;;;;;;;5828312;28;20048;-77
2023/10/13 19:40:16;;;;;;;7.57;5.22;;;;;;;;;;5842275;28;20140;-77
2023/10/13 19:44:17;;;;;;;6.95;3.85;;;;;;;;;;5838917;28;20109;-78
2023/10/13 19:47:13;;;;;;;11.00;3.40;;;;;;;;;;5844776;28;20041;-77
2023/10/13 19:50:12;;;;;;;5.40;3.28;;;;;;;;;;5826240;28;20232;-78
2023/10/13 19:53:11;;;;;;;7.25;4.78;;;;;;;;;;5845198;28;20159;-78
2023/10/13 19:56:04;;;;;;;13.48;6.63;;;;;;;;;;5838671;28;20068;-77
2023/10/13 19:58:55;;;;;;;16.40;8.35;;;;;;;;;;5853850;28;20805;-78
2023/10/13 20:01:46;;;;;;;15.27;7.30;;;;;;;;;;5865012;28;20408;-77
2023/10/13 20:04:37;;;;;;;13.15;4.18;;;;;;;;;;5901320;28;20114;-77
2023/10/13 20:07:28;;;;;;;19.63;8.63;;;;;;;;;;5883137;28;20044;-78
2023/10/13 20:10:21;;;;;;;15.63;8.25;;;;;;;;;;5905813;28;20045;-78
2023/10/13 20:13:13;;;;;;;30.33;13.82;;;;;;;;;;5887495;28;20048;-78
2023/10/13 20:16:06;;;;;;;32.92;15.20;;;;;;;;;;5907206;28;20166;-78
2023/10/13 20:19:01;;;;;;;33.65;15.20;;;;;;;;;;5889273;28;20048;-78
2023/10/13 20:21:54;;;;;;;50.13;18.52;;;;;;;;;;5883358;28;20527;-79
2023/10/13 20:24:47;;;;;;;45.50;18.55;;;;;;;;;;5883219;28;20048;-77
2023/10/13 20:27:38;;;;;;;37.80;17.05;;;;;;;;;;5891440;28;20048;-77
2023/10/13 20:30:33;;;;;;;63.42;24.92;;;;;;;;;;5883190;28;20048;-77
2023/10/13 20:33:24;;;;;;;53.55;22.15;;;;;;;;;;5889873;28;20056;-78
2023/10/13 20:36:18;;;;;;;38.70;17.60;;;;;;;;;;5841249;28;1146561;-77
2023/10/13 20:39:23;;;;;;;39.25;17.33;;;;;;;;;;5883365;28;20299;-78
2023/10/13 20:42:16;;;;;;;27.63;13.30;;;;;;;;;;5881817;28;20546;-78
2023/10/13 20:45:10;;;;;;;33.13;14.77;;;;;;;;;;5884061;28;20081;-77
2023/10/13 20:48:03;;;;;;;48.97;15.50;;;;;;;;;;5891133;28;20048;-78
2023/10/13 20:51:04;;;;;;;41.72;13.52;;;;;;;;;;5899323;28;20186;-78
2023/10/13 20:53:56;;;;;;;51.17;20.58;;;;;;;;;;5902259;28;20113;-78
2023/10/13 20:56:46;;;;;;;47.55;16.27;;;;;;;;;;5890168;28;20078;-78
2023/10/13 20:59:42;;;;;;;43.65;15.02;;;;;;;;;;5883683;28;20453;-79
2023/10/13 21:02:33;;;;;;;54.40;18.15;;;;;;;;;;5904811;28;20044;-77
2023/10/13 21:05:26;;;;;;;18.42;9.52;;;;;;;;;;5891763;28;20053;-78
2023/10/13 21:08:17;;;;;;;18.10;6.40;;;;;;;;;;5892650;28;20503;-77